createdAt,value
2023-03-15T00:02:04.190Z,2.15
2023-03-15T00:04:32.565Z,1.58
2023-03-15T00:06:59.553Z,2.20
2023-03-15T00:09:26.264Z,3.05
2023-03-15T00:11:54.679Z,1.05
2023-03-15T00:14:21.789Z,1.48
2023-03-15T00:16:48.425Z,0.80
2023-03-15T00:19:15.132Z,0.75
2023-03-15T00:21:43.368Z,1.20
2023-03-15T00:24:12.758Z,1.75
2023-03-15T00:26:39.599Z,2.90
2023-03-15T00:29:06.212Z,1.00
2023-03-15T00:31:36.195Z,1.13
2023-03-15T00:34:02.861Z,0.60
2023-03-15T00:36:29.384Z,1.05
2023-03-15T00:38:57.141Z,0.82
2023-03-15T00:41:24.540Z,1.80
2023-03-15T00:43:52.032Z,0.88
2023-03-15T00:46:19.736Z,1.10
2023-03-15T00:48:50.535Z,1.52
2023-03-15T00:51:21.280Z,0.82
2023-03-15T00:53:49.803Z,1.38
2023-03-15T00:56:25.507Z,2.30
2023-03-15T00:58:55.433Z,3.22
2023-03-15T01:01:25.636Z,1.00
2023-03-15T01:03:52.545Z,1.52
2023-03-15T01:06:21.544Z,1.50
2023-03-15T01:08:48.724Z,1.65
2023-03-15T01:11:19.120Z,1.60
2023-03-15T01:13:45.956Z,1.75
2023-03-15T01:16:14.490Z,1.85
2023-03-15T01:18:42.793Z,1.55
2023-03-15T01:21:11.777Z,2.90
2023-03-15T01:23:38.670Z,3.67
2023-03-15T01:26:07.906Z,2.40
2023-03-15T01:28:34.488Z,3.33
2023-03-15T01:31:01.068Z,3.22
2023-03-15T01:33:28.839Z,2.67
2023-03-15T01:36:00.856Z,2.58
2023-03-15T01:38:27.946Z,2.33
2023-03-15T01:40:54.720Z,3.08
2023-03-15T01:43:26.277Z,4.45
2023-03-15T01:46:04.309Z,4.22
2023-03-15T01:49:00.511Z,3.50
2023-03-15T01:51:34.460Z,3.38
2023-03-15T01:54:13.662Z,3.33
2023-03-15T01:56:46.489Z,2.83
2023-03-15T01:59:19.976Z,2.67
2023-03-15T02:01:47.778Z,3.78
2023-03-15T02:04:19.088Z,2.78
2023-03-15T02:06:46.997Z,3.58
2023-03-15T02:09:18.092Z,3.00
2023-03-15T02:11:45.155Z,2.53
2023-03-15T02:14:14.390Z,2.13
2023-03-15T02:16:41.172Z,3.15
2023-03-15T02:19:18.417Z,4.40
2023-03-15T02:22:09.484Z,3.45
2023-03-15T02:24:58.378Z,4.63
2023-03-15T02:27:32.425Z,4.43
2023-03-15T02:29:59.372Z,3.65
2023-03-15T02:32:26.047Z,4.32
2023-03-15T02:34:52.670Z,4.40
2023-03-15T02:37:19.234Z,4.65
2023-03-15T02:39:45.767Z,5.22
2023-03-15T02:42:12.381Z,4.30
2023-03-15T02:44:41.439Z,6.13
2023-03-15T02:47:13.515Z,3.30
2023-03-15T02:49:43.662Z,4.40
2023-03-15T02:52:12.236Z,4.60
2023-03-15T02:54:39.406Z,4.78
2023-03-15T02:57:06.556Z,3.97
2023-03-15T02:59:33.148Z,3.53
2023-03-15T03:01:59.840Z,6.25
2023-03-15T03:04:26.565Z,5.43
2023-03-15T03:06:53.102Z,3.92
2023-03-15T03:09:22.940Z,5.47
2023-03-15T03:11:49.418Z,6.03
2023-03-15T03:14:16.063Z,3.88
2023-03-15T03:16:42.782Z,3.92
2023-03-15T03:19:12.613Z,2.90
2023-03-15T03:21:39.151Z,3.40
2023-03-15T03:24:05.965Z,7.65
2023-03-15T03:26:32.812Z,2.80
2023-03-15T03:28:59.450Z,6.93
2023-03-15T03:31:27.778Z,5.57
2023-03-15T03:33:55.909Z,4.35
2023-03-15T03:36:25.412Z,4.25
2023-03-15T03:38:52.579Z,4.30
2023-03-15T03:41:19.800Z,3.25
2023-03-15T03:43:46.340Z,4.32
2023-03-15T03:46:12.984Z,4.35
2023-03-15T03:48:39.597Z,5.10
2023-03-15T03:51:06.207Z,4.20
2023-03-15T03:53:32.804Z,4.03
2023-03-15T03:55:59.303Z,5.38
2023-03-15T03:58:25.866Z,6.00
2023-03-15T04:00:55.791Z,4.32
2023-03-15T04:03:28.049Z,5.13
2023-03-15T04:05:56.332Z,5.28
2023-03-15T04:08:24.230Z,4.97
2023-03-15T04:10:53.282Z,5.80
2023-03-15T04:13:21.053Z,6.22
2023-03-15T04:15:48.183Z,8.45
2023-03-15T04:18:15.613Z,6.78
2023-03-15T04:20:46.970Z,6.05
2023-03-15T04:23:14.764Z,4.53
2023-03-15T04:25:42.129Z,5.05
2023-03-15T04:28:10.798Z,6.22
2023-03-15T04:30:37.766Z,7.13
2023-03-15T04:33:05.349Z,6.78
2023-03-15T04:35:36.572Z,9.52
2023-03-15T04:38:04.677Z,10.70
2023-03-15T04:40:35.204Z,6.45
2023-03-15T04:43:03.776Z,10.13
2023-03-15T04:45:34.268Z,7.05
2023-03-15T04:48:02.017Z,6.35
2023-03-15T04:50:30.429Z,9.95
2023-03-15T04:52:59.638Z,8.43
2023-03-15T04:55:26.521Z,10.73
2023-03-15T04:57:53.158Z,8.93
2023-03-15T05:00:20.086Z,10.85
2023-03-15T05:02:52.142Z,7.55
2023-03-15T05:05:18.777Z,8.70
2023-03-15T05:07:45.519Z,12.00
2023-03-15T05:10:12.668Z,10.18
2023-03-15T05:12:41.835Z,6.68
2023-03-15T05:15:09.182Z,9.10
2023-03-15T05:17:35.730Z,15.32
2023-03-15T05:20:02.396Z,8.10
2023-03-15T05:22:28.902Z,8.80
2023-03-15T05:24:55.502Z,9.43
2023-03-15T05:27:22.408Z,11.32
2023-03-15T05:29:48.900Z,10.77
2023-03-15T05:32:15.447Z,8.02
2023-03-15T05:34:42.960Z,9.68
2023-03-15T05:37:09.887Z,9.00
2023-03-15T05:39:36.506Z,12.45
2023-03-15T05:42:03.156Z,11.07
2023-03-15T05:44:29.713Z,13.32
2023-03-15T05:46:56.227Z,11.45
2023-03-15T05:49:22.982Z,10.95
2023-03-15T05:51:49.520Z,11.20
2023-03-15T05:54:16.078Z,8.05
2023-03-15T05:56:42.753Z,12.50
2023-03-15T05:59:09.266Z,10.32
2023-03-15T06:01:38.786Z,13.55
2023-03-15T06:04:05.421Z,14.27
2023-03-15T06:06:33.694Z,9.65
2023-03-15T06:09:00.772Z,13.18
2023-03-15T06:11:27.414Z,13.02
2023-03-15T06:13:53.907Z,10.80
2023-03-15T06:16:20.476Z,9.32
2023-03-15T06:18:47.042Z,6.70
2023-03-15T06:21:13.525Z,11.68
2023-03-15T06:23:40.076Z,16.52
2023-03-15T06:26:06.598Z,14.32
2023-03-15T06:28:33.202Z,8.85
2023-03-15T06:31:05.045Z,11.55
2023-03-15T06:33:31.878Z,12.60
2023-03-15T06:35:58.423Z,12.07
2023-03-15T06:38:25.006Z,13.00
2023-03-15T06:40:51.616Z,8.38
2023-03-15T06:43:19.703Z,10.88
2023-03-15T06:45:47.022Z,13.57
2023-03-15T06:48:14.722Z,8.52
2023-03-15T06:50:47.223Z,12.63
2023-03-15T06:53:14.405Z,12.95
2023-03-15T06:55:40.984Z,12.77
2023-03-15T06:58:07.522Z,10.85
2023-03-15T07:00:34.067Z,10.30
2023-03-15T07:03:00.660Z,11.70
2023-03-15T07:05:30.428Z,8.88
2023-03-15T07:07:57.200Z,7.55
2023-03-15T07:10:24.085Z,12.00
2023-03-15T07:12:53.766Z,7.07
2023-03-15T07:15:20.423Z,15.18
2023-03-15T07:17:47.023Z,10.65
2023-03-15T07:20:13.637Z,15.35
2023-03-15T07:22:40.241Z,16.10
2023-03-15T07:25:07.635Z,14.95
2023-03-15T07:27:34.189Z,12.45
2023-03-15T07:30:01.257Z,8.88
2023-03-15T07:32:28.027Z,8.73
2023-03-15T07:34:58.365Z,10.73
2023-03-15T07:37:24.941Z,11.65
2023-03-15T07:39:51.444Z,9.15
2023-03-15T07:42:17.972Z,11.57
2023-03-15T07:44:44.699Z,10.73
2023-03-15T07:47:11.289Z,14.57
2023-03-15T07:49:37.847Z,11.52
2023-03-15T07:52:04.612Z,9.75
2023-03-15T07:54:31.855Z,8.68
2023-03-15T07:56:58.515Z,10.88
2023-03-15T07:59:25.135Z,7.80
2023-03-15T08:01:51.708Z,14.32
2023-03-15T08:04:20.316Z,9.35
2023-03-15T08:06:46.904Z,10.38
2023-03-15T08:09:13.432Z,7.72
2023-03-15T08:11:40.002Z,8.35
2023-03-15T08:14:06.540Z,6.57
2023-03-15T08:16:33.228Z,12.02
2023-03-15T08:18:59.866Z,12.52
2023-03-15T08:21:26.353Z,10.60
2023-03-15T08:23:52.940Z,7.57
2023-03-15T08:26:19.552Z,5.57
2023-03-15T08:28:46.078Z,4.53
2023-03-15T08:31:14.108Z,8.25
2023-03-15T08:33:41.027Z,6.78
2023-03-15T08:36:07.819Z,8.07
2023-03-15T08:38:34.797Z,5.30
2023-03-15T08:41:01.994Z,6.00
2023-03-15T08:43:31.362Z,9.10
2023-03-15T08:46:01.489Z,10.65
2023-03-15T08:48:28.849Z,8.25
2023-03-15T08:50:55.495Z,5.47
2023-03-15T08:53:22.179Z,6.57
2023-03-15T08:55:49.620Z,6.85
2023-03-15T08:58:16.480Z,10.77
2023-03-15T09:00:43.106Z,9.50
2023-03-15T09:03:09.844Z,7.57
2023-03-15T09:05:36.807Z,8.05
2023-03-15T09:08:03.588Z,7.13
2023-03-15T09:10:30.086Z,8.07
2023-03-15T09:12:56.632Z,5.82
2023-03-15T09:15:23.366Z,6.53
2023-03-15T09:17:53.668Z,10.77
2023-03-15T09:20:22.850Z,6.30
2023-03-15T09:22:51.950Z,10.07
2023-03-15T09:25:19.133Z,7.45
2023-03-15T09:27:45.962Z,6.03
2023-03-15T09:30:13.756Z,7.38
2023-03-15T09:32:40.472Z,5.68
2023-03-15T09:35:10.324Z,8.70
2023-03-15T09:37:36.935Z,8.68
2023-03-15T09:40:04.838Z,5.53
2023-03-15T09:42:54.591Z,8.23
2023-03-15T09:45:31.164Z,9.73
2023-03-15T09:48:13.136Z,8.73
2023-03-15T09:50:48.931Z,7.93
2023-03-15T09:53:27.531Z,11.02
2023-03-15T09:55:54.092Z,7.07
2023-03-15T09:58:34.951Z,7.97
2023-03-15T10:01:12.272Z,9.70
2023-03-15T10:03:48.404Z,6.78
2023-03-15T10:06:29.405Z,8.88
2023-03-15T10:09:01.686Z,4.80
2023-03-15T10:11:45.728Z,6.55
2023-03-15T10:14:39.631Z,11.45
2023-03-15T10:17:24.528Z,7.63
2023-03-15T10:19:58.555Z,9.70
2023-03-15T10:22:37.642Z,10.47
2023-03-15T10:25:13.212Z,5.95
2023-03-15T10:28:09.088Z,11.93
2023-03-15T10:30:38.235Z,11.90
2023-03-15T10:33:37.031Z,5.47
2023-03-15T10:36:15.834Z,6.43
2023-03-15T10:38:43.113Z,11.00
2023-03-15T10:41:15.285Z,9.27
2023-03-15T10:43:56.112Z,9.75
2023-03-15T10:46:24.432Z,10.75
2023-03-15T10:49:15.151Z,8.52
2023-03-15T10:51:43.501Z,7.03
2023-03-15T10:54:13.060Z,5.97
2023-03-15T10:57:05.945Z,9.70
2023-03-15T10:59:35.507Z,6.93
2023-03-15T11:02:14.259Z,10.13
2023-03-15T11:04:42.155Z,10.25
2023-03-15T11:07:08.969Z,6.95
2023-03-15T11:09:44.760Z,6.47
2023-03-15T11:12:21.806Z,11.90
2023-03-15T11:14:51.146Z,7.32
2023-03-15T11:17:24.254Z,5.22
2023-03-15T11:20:20.100Z,9.98
2023-03-15T11:22:46.788Z,7.57
2023-03-15T11:25:18.000Z,9.60
2023-03-15T11:27:51.159Z,6.20
2023-03-15T11:30:18.355Z,10.70
2023-03-15T11:32:46.495Z,9.55
2023-03-15T11:35:26.209Z,9.38
2023-03-15T11:38:14.511Z,5.82
2023-03-15T11:40:47.733Z,5.63
2023-03-15T11:43:20.320Z,11.35
2023-03-15T11:45:56.503Z,8.02
2023-03-15T11:48:44.140Z,12.80
2023-03-15T11:51:12.471Z,6.25
2023-03-15T11:53:45.442Z,5.78
2023-03-15T11:56:28.201Z,8.90
2023-03-15T11:59:11.363Z,8.25
2023-03-15T12:01:38.274Z,8.73
2023-03-15T12:04:29.760Z,9.45
2023-03-15T12:06:57.729Z,7.22
2023-03-15T12:09:33.487Z,8.10
2023-03-15T12:12:05.995Z,12.90
2023-03-15T12:14:34.920Z,7.63
2023-03-15T12:17:29.387Z,9.20
2023-03-15T12:20:27.331Z,10.00
2023-03-15T12:23:17.759Z,11.73
2023-03-15T12:25:55.008Z,6.68
2023-03-15T12:28:38.557Z,9.05
2023-03-15T12:31:09.502Z,7.35
2023-03-15T12:33:52.478Z,8.50
2023-03-15T12:36:39.107Z,4.60
2023-03-15T12:39:17.961Z,7.88
2023-03-15T12:41:53.403Z,5.45
2023-03-15T12:44:39.361Z,8.00
2023-03-15T12:47:07.887Z,6.53
2023-03-15T12:49:34.426Z,8.20
2023-03-15T12:52:13.619Z,6.50
2023-03-15T12:54:49.233Z,7.45
2023-03-15T12:57:25.144Z,8.65
2023-03-15T12:59:55.790Z,11.10
2023-03-15T13:02:42.252Z,4.90
2023-03-15T13:05:09.535Z,9.82
2023-03-15T13:07:51.200Z,7.15
2023-03-15T13:10:24.890Z,9.65
2023-03-15T13:13:06.100Z,6.82
2023-03-15T13:15:43.048Z,7.13
2023-03-15T13:18:17.977Z,9.45
2023-03-15T13:20:55.351Z,9.00
2023-03-15T13:23:27.223Z,5.13
2023-03-15T13:26:17.131Z,6.28
2023-03-15T13:28:52.240Z,6.57
2023-03-15T13:31:24.794Z,8.05
2023-03-15T13:33:57.638Z,8.32
2023-03-15T13:36:29.206Z,7.22
2023-03-15T13:39:00.106Z,5.22
2023-03-15T13:41:31.115Z,10.48
2023-03-15T13:44:00.741Z,8.02
2023-03-15T13:46:31.274Z,8.82
2023-03-15T13:49:01.033Z,10.70
2023-03-15T13:51:29.106Z,7.03
2023-03-15T13:54:20.609Z,7.55
2023-03-15T13:57:11.814Z,6.20
2023-03-15T14:00:10.969Z,10.52
2023-03-15T14:02:48.180Z,6.20
2023-03-15T14:05:27.613Z,6.68
2023-03-15T14:08:07.460Z,12.02
2023-03-15T14:10:37.046Z,9.40
2023-03-15T14:13:25.189Z,11.18
2023-03-15T14:15:58.196Z,9.25
2023-03-15T14:18:29.773Z,10.27
2023-03-15T14:21:00.829Z,9.65
2023-03-15T14:23:29.680Z,11.18
2023-03-15T14:26:19.798Z,6.43
2023-03-15T14:29:05.043Z,8.95
2023-03-15T14:31:39.100Z,7.72
2023-03-15T14:34:18.390Z,12.07
2023-03-15T14:36:45.884Z,7.90
2023-03-15T14:39:25.355Z,7.38
2023-03-15T14:41:52.159Z,7.63
2023-03-15T14:44:18.659Z,8.45
2023-03-15T14:46:45.200Z,6.85
2023-03-15T14:49:17.294Z,6.20
2023-03-15T14:51:43.895Z,6.93
2023-03-15T14:54:11.660Z,6.90
2023-03-15T14:56:38.219Z,7.10
2023-03-15T14:59:12.247Z,7.97
2023-03-15T15:01:40.686Z,6.63
2023-03-15T15:04:07.216Z,7.25
2023-03-15T15:06:36.804Z,8.88
2023-03-15T15:09:06.091Z,12.00
2023-03-15T15:11:32.579Z,8.23
2023-03-15T15:13:59.220Z,8.25
2023-03-15T15:16:25.924Z,6.97
2023-03-15T15:18:52.468Z,7.80
2023-03-15T15:21:25.790Z,13.52
2023-03-15T15:23:58.560Z,8.80
2023-03-15T15:26:28.324Z,11.38
2023-03-15T15:28:56.489Z,7.63
2023-03-15T15:31:25.710Z,10.00
2023-03-15T15:33:54.015Z,9.07
2023-03-15T15:36:26.585Z,11.45
2023-03-15T15:38:53.220Z,10.38
2023-03-15T15:41:24.130Z,7.95
2023-03-15T15:43:50.933Z,9.38
2023-03-15T15:46:17.567Z,9.15
2023-03-15T15:48:44.778Z,8.10
2023-03-15T15:51:29.305Z,8.00
2023-03-15T15:53:59.112Z,11.15
2023-03-15T15:56:50.769Z,7.85
2023-03-15T15:59:18.232Z,10.00
2023-03-15T16:01:59.745Z,5.93
2023-03-15T16:04:28.384Z,7.35
2023-03-15T16:06:59.403Z,11.68
2023-03-15T16:09:28.181Z,11.15
2023-03-15T16:11:55.463Z,5.65
2023-03-15T16:14:22.214Z,8.10
2023-03-15T16:16:48.774Z,9.07
2023-03-15T16:19:15.371Z,11.00
2023-03-15T16:21:47.844Z,9.75
2023-03-15T16:24:27.960Z,7.50
2023-03-15T16:27:06.468Z,11.82
2023-03-15T16:29:38.850Z,4.63
2023-03-15T16:32:17.718Z,9.77
2023-03-15T16:34:46.963Z,8.43
2023-03-15T16:37:20.165Z,7.82
2023-03-15T16:39:48.608Z,9.43
2023-03-15T16:42:16.799Z,8.15
2023-03-15T16:44:43.775Z,9.45
2023-03-15T16:47:10.910Z,9.93
2023-03-15T16:49:37.812Z,11.63
2023-03-15T16:52:06.435Z,9.98
2023-03-15T16:54:41.049Z,9.52
2023-03-15T16:57:19.895Z,8.30
2023-03-15T16:59:47.374Z,6.90
2023-03-15T17:02:27.812Z,8.63
2023-03-15T17:04:54.887Z,8.57
2023-03-15T17:07:31.487Z,11.20
2023-03-15T17:10:01.610Z,12.77
2023-03-15T17:12:29.542Z,8.95
2023-03-15T17:14:59.119Z,9.30
2023-03-15T17:17:33.195Z,12.27
2023-03-15T17:20:02.444Z,14.30
2023-03-15T17:22:29.495Z,11.95
2023-03-15T17:24:56.196Z,11.02
2023-03-15T17:27:32.279Z,9.13
2023-03-15T17:30:00.535Z,9.95
2023-03-15T17:32:27.280Z,12.38
2023-03-15T17:34:58.906Z,9.85
2023-03-15T17:37:26.640Z,11.63
2023-03-15T17:39:53.930Z,12.30
2023-03-15T17:42:20.462Z,11.55
2023-03-15T17:44:47.048Z,7.78
2023-03-15T17:47:13.680Z,10.77
2023-03-15T17:49:40.217Z,9.27
2023-03-15T17:52:15.456Z,10.68
2023-03-15T17:54:42.124Z,10.60
2023-03-15T17:57:12.440Z,9.90
2023-03-15T17:59:39.390Z,13.15
2023-03-15T18:02:14.649Z,13.10
2023-03-15T18:04:41.541Z,18.30
2023-03-15T18:07:08.086Z,11.02
2023-03-15T18:09:34.637Z,13.07
2023-03-15T18:12:02.204Z,14.80
2023-03-15T18:14:30.969Z,15.25
2023-03-15T18:16:57.627Z,13.23
2023-03-15T18:19:24.207Z,13.57
2023-03-15T18:21:50.808Z,13.70
2023-03-15T18:24:17.352Z,12.10
2023-03-15T18:26:43.945Z,11.88
2023-03-15T18:29:10.536Z,15.90
2023-03-15T18:31:37.234Z,11.65
2023-03-15T18:34:03.834Z,14.82
2023-03-15T18:36:31.588Z,9.50
2023-03-15T18:38:58.572Z,11.60
2023-03-15T18:41:25.738Z,12.15
2023-03-15T18:43:52.422Z,11.35
2023-03-15T18:46:24.654Z,10.75
2023-03-15T18:48:54.466Z,17.08
2023-03-15T18:51:23.232Z,12.32
2023-03-15T18:53:49.815Z,17.70
2023-03-15T18:56:27.752Z,12.52
2023-03-15T18:58:54.830Z,15.43
2023-03-15T19:01:24.795Z,14.82
2023-03-15T19:03:53.451Z,12.93
2023-03-15T19:06:21.704Z,16.65
2023-03-15T19:08:53.623Z,17.33
2023-03-15T19:11:21.239Z,14.90
2023-03-15T19:13:51.016Z,14.15
2023-03-15T19:16:19.192Z,14.68
2023-03-15T19:18:45.844Z,15.70
2023-03-15T19:21:12.674Z,16.15
2023-03-15T19:23:39.265Z,18.88
2023-03-15T19:26:06.074Z,20.38
2023-03-15T19:28:33.118Z,18.23
2023-03-15T19:30:59.749Z,17.13
2023-03-15T19:33:26.389Z,16.05
2023-03-15T19:35:53.090Z,18.83
2023-03-15T19:38:19.994Z,18.27
2023-03-15T19:40:48.471Z,21.50
2023-03-15T19:43:15.180Z,26.90
2023-03-15T19:45:41.701Z,17.92
2023-03-15T19:48:08.351Z,19.33
2023-03-15T19:50:34.957Z,19.92
2023-03-15T19:53:01.644Z,24.13
2023-03-15T19:55:31.360Z,19.60
2023-03-15T19:57:58.215Z,23.70
2023-03-15T20:00:25.301Z,22.25
2023-03-15T20:02:52.150Z,19.63
2023-03-15T20:05:20.819Z,29.30
2023-03-15T20:07:50.649Z,32.15
2023-03-15T20:10:18.886Z,29.50
2023-03-15T20:12:48.069Z,35.88
2023-03-15T20:15:17.758Z,32.75
2023-03-15T20:17:44.828Z,21.33
2023-03-15T20:20:13.801Z,24.65
2023-03-15T20:22:42.822Z,21.40
2023-03-15T20:25:11.041Z,19.77
2023-03-15T20:27:37.664Z,20.90
2023-03-15T20:30:06.016Z,26.25
2023-03-15T20:32:32.752Z,22.63
2023-03-15T20:35:00.971Z,21.60
2023-03-15T20:37:29.814Z,17.95
2023-03-15T20:39:56.741Z,17.50
2023-03-15T20:42:24.410Z,19.40
2023-03-15T20:44:51.009Z,20.42
2023-03-15T20:47:17.604Z,18.65
2023-03-15T20:49:44.307Z,24.27
2023-03-15T20:52:11.564Z,19.95
2023-03-15T20:54:38.116Z,21.95
2023-03-15T20:57:04.753Z,25.73
2023-03-15T20:59:32.100Z,48.22
2023-03-15T21:01:58.694Z,34.97
2023-03-15T21:04:26.193Z,43.28
2023-03-15T21:06:52.946Z,34.40
2023-03-15T21:09:19.815Z,31.42
2023-03-15T21:11:46.735Z,32.15
2023-03-15T21:14:13.449Z,34.10
2023-03-15T21:16:42.464Z,22.77
2023-03-15T21:19:09.064Z,23.10
2023-03-15T21:21:35.656Z,20.38
2023-03-15T21:24:02.343Z,17.15
2023-03-15T21:26:28.843Z,17.85
2023-03-15T21:28:55.369Z,20.15
2023-03-15T21:31:22.054Z,20.98
2023-03-15T21:33:51.283Z,18.52
2023-03-15T21:36:17.894Z,20.58
2023-03-15T21:38:44.720Z,15.60
2023-03-15T21:41:11.522Z,20.95
2023-03-15T21:43:38.364Z,17.40
2023-03-15T21:46:08.267Z,19.83
2023-03-15T21:48:36.923Z,25.50
2023-03-15T21:51:04.510Z,24.52
2023-03-15T21:53:36.438Z,27.45
2023-03-15T21:56:04.118Z,21.92
2023-03-15T21:58:31.412Z,22.85
2023-03-15T22:01:00.014Z,23.27
2023-03-15T22:03:27.928Z,24.02
2023-03-15T22:05:54.505Z,22.63
2023-03-15T22:08:21.348Z,21.13
2023-03-15T22:10:51.384Z,20.73
2023-03-15T22:13:17.868Z,22.15
2023-03-15T22:15:44.459Z,22.15
2023-03-15T22:18:10.985Z,22.52
2023-03-15T22:20:37.960Z,20.80
2023-03-15T22:23:05.037Z,23.45
2023-03-15T22:25:32.700Z,28.23
2023-03-15T22:27:59.592Z,22.15
2023-03-15T22:30:26.585Z,19.77
2023-03-15T22:32:53.507Z,18.75
2023-03-15T22:35:20.441Z,24.38
2023-03-15T22:37:47.275Z,24.52
2023-03-15T22:40:14.492Z,21.65
2023-03-15T22:42:42.415Z,21.67
2023-03-15T22:45:09.394Z,20.88
2023-03-15T22:47:36.040Z,21.27
2023-03-15T22:50:02.584Z,24.88
2023-03-15T22:52:29.154Z,26.83
2023-03-15T22:54:55.703Z,15.32
2023-03-15T22:57:22.646Z,20.83
2023-03-15T22:59:49.338Z,16.80
2023-03-15T23:02:15.833Z,16.52
2023-03-15T23:04:42.460Z,21.23
2023-03-15T23:07:09.098Z,16.20
2023-03-15T23:09:35.684Z,16.75
2023-03-15T23:12:02.284Z,17.52
2023-03-15T23:14:28.876Z,15.13
2023-03-15T23:16:55.420Z,17.10
2023-03-15T23:19:22.429Z,15.40
2023-03-15T23:21:49.048Z,17.92
2023-03-15T23:24:18.980Z,17.83
2023-03-15T23:26:45.794Z,16.75
2023-03-15T23:29:12.429Z,18.52
2023-03-15T23:31:40.749Z,16.38
2023-03-15T23:34:08.258Z,16.75
2023-03-15T23:36:35.719Z,16.95
2023-03-15T23:39:02.445Z,19.98
2023-03-15T23:41:31.873Z,22.33
2023-03-15T23:43:58.506Z,17.92
2023-03-15T23:46:25.741Z,15.50
2023-03-15T23:48:53.256Z,16.73
2023-03-15T23:51:22.229Z,16.17
2023-03-15T23:53:48.805Z,20.27
2023-03-15T23:56:15.407Z,14.50
2023-03-15T23:58:41.958Z,15.80
